METAR Formatted Surface Weather Observation
Issued by NWS Charleston, WV

Home | Current Version | Previous Version | Text Only | Print | Product List | Glossary On
Versions: 1 2 3 4 5 6
000
SAUS41 KRLX 290357 COR
MTRBKW
METAR KBKW 290351Z AUTO 15008KT 10SM CLR 18/12 A3019 RMK AO2 SLP197
T01780117 TSNO



USA.gov is the U.S. government's official web portal to all federal, state and local government web resources and services.